Time;durP1;ratioP1;P1;durP2;ratioP2;P2;SDS_P1;SDS_P2;PMS_P1;PMS_P2;Temp;Humidity;BMP_temperature;BMP_pressure;BME280_temperature;BME280_humidity;BME280_pressure;Samples;Min_cycle;Max_cycle;Signal;HPM_P1;HPM_P2
2023/02/25 00:01:19;;;;;;;5.68;2.60;;;23.00;45.30;;;;;;6288786;27;80759;-59
2023/02/25 00:04:20;;;;;;;5.03;2.53;;;23.00;45.20;;;;;;6291941;27;81443;-60
2023/02/25 00:07:21;;;;;;;5.20;2.90;;;23.00;45.10;;;;;;6306491;27;81482;-59
2023/02/25 00:10:22;;;;;;;4.00;2.40;;;23.00;45.10;;;;;;6280239;27;80383;-59
2023/02/25 00:13:22;;;;;;;4.35;2.40;;;23.00;45.10;;;;;;6271898;27;82430;-59
2023/02/25 00:16:23;;;;;;;3.22;2.22;;;23.00;45.10;;;;;;6296906;27;80430;-60
2023/02/25 00:19:23;;;;;;;3.72;2.35;;;23.00;45.20;;;;;;6290593;27;80132;-60
2023/02/25 00:22:24;;;;;;;3.80;2.08;;;23.00;45.30;;;;;;6303278;27;81396;-60
2023/02/25 00:25:27;;;;;;;6.32;2.53;;;23.00;45.30;;;;;;6305691;27;80093;-61
2023/02/25 00:28:28;;;;;;;4.20;2.30;;;23.00;45.50;;;;;;6290403;27;83773;-61
2023/02/25 00:31:28;;;;;;;5.20;2.05;;;23.00;45.50;;;;;;6300091;27;82370;-61
2023/02/25 00:34:29;;;;;;;2.92;2.10;;;23.00;45.40;;;;;;6283614;27;81509;-61
2023/02/25 00:37:30;;;;;;;4.25;2.40;;;23.00;45.40;;;;;;6264825;27;83948;-60
2023/02/25 00:40:30;;;;;;;4.22;2.50;;;23.00;45.40;;;;;;6282360;27;80949;-60
2023/02/25 00:43:31;;;;;;;4.20;2.53;;;23.00;45.30;;;;;;6271399;27;81847;-58
2023/02/25 00:46:31;;;;;;;4.18;2.33;;;23.00;45.20;;;;;;6304933;27;82885;-58
2023/02/25 00:49:32;;;;;;;3.15;2.30;;;23.00;45.30;;;;;;6299689;27;80569;-58
2023/02/25 00:52:32;;;;;;;5.13;2.40;;;23.00;45.30;;;;;;6279575;27;80565;-57
2023/02/25 00:55:33;;;;;;;4.28;2.20;;;23.00;45.30;;;;;;6291748;27;80575;-58
2023/02/25 01:12:25;;;;;;;3.55;2.28;;;23.00;45.50;;;;;;6255523;27;81245;-59
2023/02/25 01:15:27;;;;;;;2.88;2.10;;;23.00;45.60;;;;;;6279295;27;81738;-59
2023/02/25 01:18:28;;;;;;;3.92;2.38;;;23.00;45.60;;;;;;6277112;27;80427;-58
2023/02/25 01:21:28;;;;;;;4.13;2.70;;;23.00;45.70;;;;;;6276949;27;80431;-59
2023/02/25 01:24:29;;;;;;;4.28;1.90;;;23.00;45.70;;;;;;6267019;27;80631;-59
2023/02/25 01:27:29;;;;;;;4.00;1.98;;;22.90;45.60;;;;;;6275417;27;80386;-59
2023/02/25 01:30:30;;;;;;;4.25;2.20;;;22.90;45.60;;;;;;6279237;27;81993;-59
2023/02/25 01:33:30;;;;;;;5.72;2.63;;;23.00;45.60;;;;;;6257349;27;81519;-58
2023/02/25 01:36:31;;;;;;;3.38;2.60;;;22.90;45.60;;;;;;6277367;27;80546;-59
2023/02/25 01:39:31;;;;;;;3.13;2.22;;;23.00;45.70;;;;;;6267834;27;82467;-59
2023/02/25 01:42:32;;;;;;;3.58;2.33;;;22.90;45.70;;;;;;6258908;27;83504;-60
2023/02/25 01:45:33;;;;;;;3.28;2.03;;;22.90;45.70;;;;;;6256269;27;83062;-60
2023/02/25 01:48:34;;;;;;;3.15;2.05;;;22.90;45.90;;;;;;6277241;27;80204;-60
2023/02/25 01:51:34;;;;;;;3.53;2.30;;;22.90;46.00;;;;;;6246007;27;83066;-58
2023/02/25 01:54:35;;;;;;;3.03;2.15;;;22.90;45.90;;;;;;6265878;27;82322;-58
2023/02/25 01:57:35;;;;;;;5.40;2.08;;;22.90;46.00;;;;;;6237089;27;83369;-58
2023/02/25 02:00:36;;;;;;;3.42;2.13;;;22.90;46.10;;;;;;6258187;27;82941;-58
2023/02/25 02:03:37;;;;;;;3.53;2.45;;;22.90;46.20;;;;;;6259581;27;82083;-57
2023/02/25 02:06:37;;;;;;;3.90;2.20;;;22.90;46.00;;;;;;6242409;27;83311;-58
2023/02/25 02:09:39;;;;;;;4.43;2.60;;;22.90;46.00;;;;;;6255745;27;83505;-59
2023/02/25 02:12:39;;;;;;;4.05;2.40;;;22.90;45.90;;;;;;6274421;27;80292;-58
2023/02/25 02:15:40;;;;;;;5.38;2.35;;;22.90;45.80;;;;;;6277220;27;81531;-59
2023/02/25 02:18:40;;;;;;;4.85;2.40;;;22.90;45.70;;;;;;6277083;27;81183;-59
2023/02/25 02:21:43;;;;;;;3.42;2.40;;;22.90;45.70;;;;;;6277665;27;80313;-59
2023/02/25 02:24:43;;;;;;;4.47;2.53;;;22.90;45.60;;;;;;6267928;27;80489;-59
2023/02/25 02:27:44;;;;;;;5.15;2.80;;;22.90;45.70;;;;;;6269618;27;81639;-60
2023/02/25 02:30:45;;;;;;;4.88;2.47;;;22.90;45.70;;;;;;6276772;27;80353;-59
2023/02/25 02:33:45;;;;;;;4.32;2.53;;;22.90;45.70;;;;;;6257930;27;81974;-59
2023/02/25 02:36:46;;;;;;;6.18;3.25;;;22.90;45.70;;;;;;6273221;27;81255;-59
2023/02/25 02:39:46;;;;;;;6.25;2.17;;;22.90;45.70;;;;;;6258329;27;83599;-59
2023/02/25 02:42:48;;;;;;;4.45;2.80;;;22.90;46.40;;;;;;6257220;27;82155;-59
2023/02/25 02:45:49;;;;;;;3.42;2.15;;;22.90;45.80;;;;;;6254330;27;82057;-59
2023/02/25 02:48:49;;;;;;;4.28;2.20;;;22.90;45.80;;;;;;6275036;27;81582;-59
2023/02/25 02:51:50;;;;;;;4.57;2.25;;;22.80;45.80;;;;;;6256536;27;82101;-56
2023/02/25 02:54:50;;;;;;;4.25;1.90;;;22.80;46.00;;;;;;6276230;27;82636;-58
2023/02/25 02:57:51;;;;;;;3.65;2.42;;;22.90;45.90;;;;;;6276265;27;80100;-58
2023/02/25 03:00:54;;;;;;;4.30;2.28;;;22.80;45.90;;;;;;6274251;27;80358;-56
2023/02/25 03:03:58;;;;;;;3.45;2.35;;;22.80;45.80;;;;;;6256294;27;82335;-56
2023/02/25 03:06:59;;;;;;;3.35;2.50;;;22.80;45.90;;;;;;6274407;27;81051;-57
2023/02/25 03:09:59;;;;;;;2.83;2.10;;;22.90;45.90;;;;;;6277040;27;81238;-60
2023/02/25 03:13:05;;;;;;;;;;;22.80;45.80;;;;;;6274242;27;81456;-59
2023/02/25 03:16:06;;;;;;;4.25;2.47;;;22.80;46.00;;;;;;6281160;27;81543;-60
2023/02/25 03:19:07;;;;;;;5.75;2.47;;;22.90;46.00;;;;;;6256162;27;80747;-59
2023/02/25 03:22:07;;;;;;;4.50;2.28;;;22.90;46.00;;;;;;6265620;27;81297;-59
2023/02/25 03:25:11;;;;;;;6.95;2.40;;;22.80;45.90;;;;;;6274418;27;81616;-60
2023/02/25 03:28:11;;;;;;;4.05;2.40;;;22.90;45.90;;;;;;6234377;27;81889;-60
2023/02/25 03:31:12;;;;;;;3.35;2.05;;;22.80;45.90;;;;;;6269521;27;80488;-59
2023/02/25 03:34:12;;;;;;;2.60;1.80;;;22.80;45.90;;;;;;6244999;28;82878;-58
2023/02/25 03:37:13;;;;;;;5.20;2.20;;;22.80;46.00;;;;;;6275445;27;81731;-58
2023/02/25 03:40:14;;;;;;;3.58;1.98;;;22.80;45.90;;;;;;6239092;27;83372;-57
2023/02/25 03:43:14;;;;;;;5.15;2.42;;;22.80;45.90;;;;;;6241329;27;83221;-59
2023/02/25 03:46:15;;;;;;;2.78;2.17;;;22.80;46.00;;;;;;6243337;27;83116;-59
2023/02/25 03:49:16;;;;;;;4.28;2.50;;;22.80;45.90;;;;;;6237759;27;83553;-57
2023/02/25 03:52:16;;;;;;;2.50;1.85;;;22.80;45.80;;;;;;6246562;27;83463;-59
2023/02/25 03:55:18;;;;;;;3.58;2.30;;;22.80;45.70;;;;;;6248710;27;81689;-60
2023/02/25 03:58:18;;;;;;;4.00;1.80;;;22.80;45.80;;;;;;6269681;27;80548;-59
2023/02/25 04:01:20;;;;;;;3.38;2.58;;;22.80;45.80;;;;;;6254405;27;83276;-60
2023/02/25 04:04:20;;;;;;;4.07;2.67;;;22.90;45.80;;;;;;6255068;27;83702;-59
2023/02/25 04:07:21;;;;;;;4.80;2.38;;;22.90;46.80;;;;;;6260092;27;82174;-60
2023/02/25 04:10:22;;;;;;;5.20;2.65;;;22.90;46.10;;;;;;6273650;27;80844;-59
2023/02/25 04:13:22;;;;;;;3.88;2.20;;;22.90;46.00;;;;;;6276422;27;82766;-58
2023/02/25 04:16:23;;;;;;;3.47;2.50;;;22.90;45.80;;;;;;6252306;27;83075;-59
2023/02/25 04:19:24;;;;;;;3.42;2.47;;;22.90;46.00;;;;;;6256260;27;81430;-59
2023/02/25 04:22:25;;;;;;;3.33;2.25;;;22.90;46.00;;;;;;6250791;27;82473;-59
2023/02/25 04:25:25;;;;;;;3.92;2.38;;;22.90;46.00;;;;;;6276468;27;81153;-62
2023/02/25 04:28:26;;;;;;;3.63;2.63;;;22.90;46.00;;;;;;6275738;27;81938;-62
2023/02/25 04:31:26;;;;;;;3.35;2.63;;;22.90;45.40;;;;;;6267494;27;82663;-63
2023/02/25 04:34:27;;;;;;;3.17;2.40;;;22.90;45.40;;;;;;6277083;27;80354;-64
2023/02/25 04:37:27;;;;;;;5.00;2.88;;;22.90;45.10;;;;;;6251766;27;80603;-63
2023/02/25 04:40:28;;;;;;;3.55;2.53;;;23.00;45.10;;;;;;6260166;27;80958;-62
2023/02/25 04:43:28;;;;;;;4.75;2.67;;;23.00;44.90;;;;;;6278583;27;80734;-51
2023/02/25 04:46:29;;;;;;;4.22;2.83;;;23.00;44.70;;;;;;6279256;27;80835;-54
2023/02/25 04:49:29;;;;;;;5.78;3.40;;;23.00;44.50;;;;;;6277389;27;80489;-51
2023/02/25 04:52:30;;;;;;;4.13;3.05;;;23.10;44.40;;;;;;6278211;27;81027;-51
2023/02/25 04:55:31;;;;;;;5.00;2.95;;;23.10;44.30;;;;;;6278321;27;80908;-49
2023/02/25 04:58:31;;;;;;;3.38;2.58;;;23.10;44.20;;;;;;6259994;27;81994;-51
2023/02/25 05:01:32;;;;;;;4.80;3.10;;;23.10;44.20;;;;;;6274466;27;80244;-53
2023/02/25 05:04:33;;;;;;;3.85;2.88;;;23.10;44.00;;;;;;6277724;27;81075;-48
2023/02/25 05:07:34;;;;;;;5.05;3.00;;;23.10;43.90;;;;;;6278566;27;80528;-48
2023/02/25 05:10:34;;;;;;;3.72;2.60;;;23.20;43.90;;;;;;6272372;27;81173;-48
2023/02/25 05:13:35;;;;;;;6.95;3.08;;;23.20;43.90;;;;;;6267647;27;81760;-46
2023/02/25 05:16:35;;;;;;;6.65;3.00;;;23.20;44.00;;;;;;6271404;27;87036;-54
2023/02/25 05:19:36;;;;;;;5.82;3.17;;;23.20;43.70;;;;;;6269914;27;82545;-50
2023/02/25 05:22:36;;;;;;;7.03;3.25;;;23.20;43.90;;;;;;6268068;27;82625;-54
2023/02/25 05:25:40;;;;;;;4.45;2.85;;;23.20;44.00;;;;;;6271513;27;80427;-51
2023/02/25 05:28:42;;;;;;;8.85;3.10;;;23.20;44.10;;;;;;6275370;27;80471;-48
2023/02/25 05:31:43;;;;;;;4.25;2.78;;;23.20;44.10;;;;;;6267351;27;80553;-52
2023/02/25 05:34:43;;;;;;;3.70;3.05;;;23.20;44.10;;;;;;6277291;27;80848;-51
2023/02/25 05:37:44;;;;;;;4.13;3.22;;;23.20;43.70;;;;;;6277621;27;80620;-58
2023/02/25 05:40:44;;;;;;;4.07;2.80;;;23.20;43.70;;;;;;6270062;27;80747;-60
2023/02/25 05:43:45;;;;;;;3.13;2.40;;;23.20;43.40;;;;;;6277111;27;80774;-60
2023/02/25 05:46:45;;;;;;;3.83;2.55;;;23.20;43.40;;;;;;6252195;27;83823;-60
2023/02/25 05:49:46;;;;;;;3.70;2.70;;;23.20;43.30;;;;;;6271161;27;80659;-58
2023/02/25 05:52:46;;;;;;;5.43;2.50;;;23.20;43.30;;;;;;6266621;27;80762;-59
2023/02/25 05:55:47;;;;;;;5.10;2.53;;;23.20;43.80;;;;;;6275243;27;80442;-59
2023/02/25 05:58:47;;;;;;;5.05;2.47;;;23.20;43.60;;;;;;6277343;27;80894;-60
2023/02/25 06:01:48;;;;;;;5.70;2.78;;;23.20;44.70;;;;;;6273960;27;80234;-60
2023/02/25 06:04:48;;;;;;;5.28;3.10;;;23.20;44.40;;;;;;6278531;27;80425;-61
2023/02/25 06:07:49;;;;;;;8.55;3.10;;;23.20;44.50;;;;;;6253384;27;85940;-67
2023/02/25 06:10:49;;;;;;;5.10;2.70;;;23.20;44.80;;;;;;6264806;27;80420;-63
2023/02/25 06:13:50;;;;;;;5.97;2.70;;;23.20;44.20;;;;;;6270390;27;81010;-60
2023/02/25 06:16:55;;;;;;;3.45;2.40;;;23.20;45.10;;;;;;6254540;27;81128;-61
2023/02/25 06:19:56;;;;;;;4.53;2.27;;;23.20;44.50;;;;;;6264295;27;82676;-61
2023/02/25 06:22:56;;;;;;;16.42;8.00;;;23.20;45.20;;;;;;6267337;27;81255;-61
2023/02/25 06:25:57;;;;;;;327.88;89.13;;;23.20;45.20;;;;;;6260705;27;81588;-61
2023/02/25 06:28:57;;;;;;;597.03;230.68;;;23.20;45.90;;;;;;6271319;27;84852;-61
2023/02/25 06:31:58;;;;;;;632.05;259.90;;;23.10;45.00;;;;;;6259356;27;85491;-63
2023/02/25 06:34:58;;;;;;;691.17;305.55;;;22.50;41.50;;;;;;6240035;28;86824;-61
2023/02/25 06:37:59;;;;;;;627.47;260.85;;;21.90;45.10;;;;;;6258702;27;86059;-60
2023/02/25 06:40:59;;;;;;;570.40;230.70;;;22.10;44.60;;;;;;6235451;27;85606;-60
2023/02/25 06:44:00;;;;;;;424.83;162.73;;;22.30;44.50;;;;;;6269306;27;85271;-60
2023/02/25 06:47:00;;;;;;;401.20;143.52;;;22.40;44.00;;;;;;6269530;27;87550;-62
2023/02/25 06:50:01;;;;;;;351.98;132.52;;;22.50;43.20;;;;;;6265161;27;85711;-64
2023/02/25 06:53:01;;;;;;;308.00;115.88;;;22.60;43.00;;;;;;6264056;27;86275;-61
2023/02/25 06:56:02;;;;;;;287.10;110.13;;;22.70;43.10;;;;;;6259839;27;86735;-61
2023/02/25 06:59:02;;;;;;;284.45;105.28;;;22.70;43.40;;;;;;6249984;27;86041;-60
2023/02/25 07:02:03;;;;;;;254.52;97.72;;;22.80;43.50;;;;;;6260176;27;85869;-61
2023/02/25 07:05:04;;;;;;;237.02;91.32;;;22.80;43.60;;;;;;6266245;27;85981;-60
2023/02/25 07:08:04;;;;;;;210.75;85.20;;;22.90;43.80;;;;;;6269409;27;84412;-68
2023/02/25 07:11:05;;;;;;;213.75;83.30;;;22.90;43.70;;;;;;6268175;27;85375;-63
2023/02/25 07:14:05;;;;;;;202.45;79.85;;;23.00;43.70;;;;;;6256836;27;83296;-62
2023/02/25 07:17:06;;;;;;;204.32;77.22;;;23.00;43.50;;;;;;6248781;27;85296;-61
2023/02/25 07:20:06;;;;;;;174.63;69.43;;;23.00;43.80;;;;;;6257142;27;86042;-60
2023/02/25 07:23:07;;;;;;;182.90;68.05;;;23.00;44.00;;;;;;6258923;27;83364;-64
2023/02/25 07:26:08;;;;;;;156.63;60.30;;;23.10;43.80;;;;;;6257492;27;82815;-59
2023/02/25 07:29:08;;;;;;;162.00;61.47;;;23.10;43.50;;;;;;6249576;27;84492;-63
2023/02/25 07:32:09;;;;;;;163.27;64.65;;;23.10;44.20;;;;;;6263046;27;83385;-61
2023/02/25 07:35:09;;;;;;;153.25;59.40;;;23.20;44.40;;;;;;6242497;27;84012;-61
2023/02/25 07:38:11;;;;;;;136.13;57.90;;;23.20;44.70;;;;;;6258472;27;83500;-67
2023/02/25 07:41:12;;;;;;;135.63;51.88;;;23.20;44.70;;;;;;6262193;27;83772;-64
2023/02/25 07:44:12;;;;;;;124.22;50.03;;;23.30;44.60;;;;;;6259987;27;84325;-68
2023/02/25 07:47:13;;;;;;;120.35;46.75;;;23.40;44.60;;;;;;6262037;27;83196;-62
2023/02/25 07:50:13;;;;;;;121.38;44.92;;;23.40;43.70;;;;;;6266211;27;83636;-60
2023/02/25 07:53:14;;;;;;;103.15;43.40;;;23.40;43.50;;;;;;6261586;27;83420;-60
2023/02/25 07:56:14;;;;;;;97.13;40.67;;;23.40;43.70;;;;;;6250007;27;83140;-60
2023/02/25 07:59:15;;;;;;;100.00;37.53;;;23.50;43.60;;;;;;6266172;27;83368;-61
2023/02/25 08:02:16;;;;;;;91.97;35.53;;;23.40;43.40;;;;;;6258490;27;83213;-60
2023/02/25 08:05:20;;;;;;;79.43;31.35;;;23.50;43.10;;;;;;6245773;27;88414;-62
2023/02/25 08:08:21;;;;;;;76.20;32.67;;;23.50;43.00;;;;;;6258486;27;87983;-63
2023/02/25 08:11:21;;;;;;;80.40;32.80;;;23.60;42.90;;;;;;6240909;27;87156;-63
2023/02/25 08:14:22;;;;;;;68.65;28.10;;;23.60;42.50;;;;;;6259760;27;83372;-62
2023/02/25 08:17:22;;;;;;;71.82;26.50;;;23.70;42.20;;;;;;6255506;27;83996;-61
2023/02/25 08:20:23;;;;;;;67.03;26.90;;;23.70;42.00;;;;;;6252331;27;85099;-59
2023/02/25 08:23:24;;;;;;;74.05;29.17;;;23.70;42.80;;;;;;6262178;27;87487;-60
2023/02/25 08:26:26;;;;;;;63.33;24.08;;;23.70;43.10;;;;;;6267978;27;83446;-59
2023/02/25 08:29:26;;;;;;;42.92;18.85;;;23.70;42.70;;;;;;6263193;27;85261;-60
2023/02/25 08:32:27;;;;;;;36.90;16.02;;;23.70;41.60;;;;;;6273003;27;83603;-61
2023/02/25 08:35:27;;;;;;;30.67;13.35;;;23.80;41.30;;;;;;6272429;27;85203;-58
2023/02/25 08:38:28;;;;;;;22.90;10.23;;;23.80;40.30;;;;;;6273628;27;84412;-60
2023/02/25 08:41:28;;;;;;;23.50;9.32;;;23.70;39.90;;;;;;6281143;27;84868;-49
2023/02/25 08:44:29;;;;;;;15.20;7.68;;;23.70;39.90;;;;;;6258025;27;86340;-51
2023/02/25 08:47:34;;;;;;;14.48;6.45;;;23.70;39.60;;;;;;6243354;27;81523;-51
2023/02/25 08:50:34;;;;;;;11.85;6.25;;;23.60;39.20;;;;;;6276288;27;80942;-48
2023/02/25 08:53:36;;;;;;;11.27;4.90;;;23.50;39.10;;;;;;6259774;27;84264;-50
2023/02/25 08:56:36;;;;;;;8.88;4.07;;;23.50;38.70;;;;;;6255096;27;81092;-46
2023/02/25 08:59:37;;;;;;;7.55;3.72;;;23.40;38.00;;;;;;6271595;27;81371;-48
2023/02/25 09:02:37;;;;;;;7.78;3.25;;;23.40;38.10;;;;;;6275665;27;80782;-47
2023/02/25 09:05:38;;;;;;;6.03;2.85;;;23.30;37.70;;;;;;6260244;27;82153;-47
2023/02/25 09:08:38;;;;;;;6.32;3.10;;;23.30;37.70;;;;;;6276282;27;80846;-47
2023/02/25 09:11:39;;;;;;;8.10;2.72;;;23.20;37.70;;;;;;6273397;27;80282;-48
2023/02/25 09:14:39;;;;;;;6.75;2.45;;;23.20;37.60;;;;;;6262819;27;82225;-50
2023/02/25 09:17:40;;;;;;;8.15;3.00;;;23.20;37.60;;;;;;6269566;27;80855;-47
2023/02/25 09:20:40;;;;;;;7.57;2.70;;;23.20;37.60;;;;;;6268390;27;80396;-47
2023/02/25 09:23:41;;;;;;;11.20;3.13;;;23.30;37.50;;;;;;6252135;27;80615;-46
2023/02/25 09:26:41;;;;;;;9.77;2.92;;;23.40;37.40;;;;;;6271297;27;85225;-48
2023/02/25 09:29:42;;;;;;;9.73;3.95;;;23.50;37.20;;;;;;6237798;27;82917;-49
2023/02/25 09:32:44;;;;;;;12.68;3.70;;;23.50;37.50;;;;;;6271739;27;81074;-47
2023/02/25 09:35:44;;;;;;;14.55;3.83;;;23.50;37.10;;;;;;6274938;27;80699;-59
2023/02/25 09:38:45;;;;;;;14.70;3.70;;;23.50;37.20;;;;;;6275344;27;81941;-61
2023/02/25 09:41:45;;;;;;;10.38;3.40;;;23.50;37.10;;;;;;6261978;27;81979;-52
2023/02/25 09:44:47;;;;;;;8.48;3.05;;;23.50;37.00;;;;;;6250733;27;80469;-48
2023/02/25 09:47:48;;;;;;;5.90;2.03;;;23.50;36.60;;;;;;6270595;27;80499;-48
2023/02/25 09:50:50;;;;;;;10.25;2.80;;;23.60;36.30;;;;;;6276255;27;82363;-52
2023/02/25 09:53:51;;;;;;;6.68;2.80;;;23.50;36.10;;;;;;6268377;27;80502;-67
2023/02/25 09:56:51;;;;;;;7.35;2.25;;;23.60;36.10;;;;;;6274041;27;80467;-65
2023/02/25 09:59:52;;;;;;;5.82;2.28;;;23.60;36.10;;;;;;6269294;27;80599;-66
2023/02/25 10:02:52;;;;;;;3.88;1.85;;;23.70;36.50;;;;;;6258892;27;81397;-65
2023/02/25 10:05:53;;;;;;;5.65;2.22;;;23.80;36.60;;;;;;6273999;27;80943;-62
2023/02/25 10:08:54;;;;;;;7.85;2.08;;;23.90;36.70;;;;;;6272286;27;82900;-66
2023/02/25 10:11:54;;;;;;;5.43;2.47;;;23.90;37.00;;;;;;6268638;27;90180;-53
2023/02/25 10:14:55;;;;;;;6.93;2.58;;;23.90;37.10;;;;;;6248348;27;81953;-50
2023/02/25 10:17:55;;;;;;;10.60;3.13;;;23.80;37.10;;;;;;6255728;27;80805;-48
2023/02/25 10:20:56;;;;;;;6.70;3.53;;;23.80;37.60;;;;;;6267457;27;82591;-55
2023/02/25 10:23:56;;;;;;;6.88;3.53;;;23.90;38.10;;;;;;6268062;27;80389;-49
2023/02/25 10:26:58;;;;;;;10.32;4.03;;;23.80;38.10;;;;;;6270398;27;80541;-50
2023/02/25 10:29:58;;;;;;;10.70;4.10;;;23.80;38.30;;;;;;6270484;27;80409;-47
2023/02/25 10:32:59;;;;;;;8.18;2.95;;;23.80;38.40;;;;;;6270281;27;80723;-60
2023/02/25 10:36:00;;;;;;;12.60;4.07;;;23.80;38.50;;;;;;6269195;27;80710;-58
2023/02/25 10:39:00;;;;;;;7.50;3.75;;;23.80;38.60;;;;;;6265840;27;80849;-58
2023/02/25 10:42:01;;;;;;;7.43;3.35;;;23.80;38.50;;;;;;6280338;27;82309;-61
2023/02/25 10:45:01;;;;;;;6.35;2.67;;;23.80;38.40;;;;;;6268891;27;80387;-60
2023/02/25 10:48:02;;;;;;;7.85;2.83;;;23.80;38.50;;;;;;6276921;27;81177;-59
2023/02/25 10:51:04;;;;;;;7.20;2.58;;;23.80;38.90;;;;;;6274488;27;80402;-48
2023/02/25 10:54:05;;;;;;;6.82;3.17;;;23.80;39.20;;;;;;6265678;27;80811;-49
2023/02/25 10:57:07;;;;;;;7.07;2.72;;;23.80;39.60;;;;;;6276702;27;80646;-48
2023/02/25 11:00:12;;;;;;;4.38;2.55;;;23.80;39.50;;;;;;6273628;27;81253;-49
2023/02/25 11:03:12;;;;;;;6.82;2.78;;;23.90;40.90;;;;;;6276142;27;81701;-48
2023/02/25 11:06:13;;;;;;;4.82;2.30;;;23.80;40.50;;;;;;6258259;27;80766;-49
2023/02/25 11:09:13;;;;;;;5.40;2.80;;;23.80;40.70;;;;;;6264316;27;82781;-48
2023/02/25 11:12:14;;;;;;;8.35;2.95;;;23.70;41.30;;;;;;6255391;27;86138;-48
2023/02/25 11:15:14;;;;;;;5.93;2.50;;;23.70;42.90;;;;;;6254830;27;83437;-48
2023/02/25 11:18:15;;;;;;;10.85;3.05;;;23.70;43.50;;;;;;6257732;27;80677;-52
2023/02/25 11:21:17;;;;;;;3.30;2.20;;;23.70;43.10;;;;;;6265392;27;80714;-49
2023/02/25 11:24:18;;;;;;;4.00;2.40;;;23.70;42.90;;;;;;6260952;27;85222;-53
2023/02/25 11:27:19;;;;;;;4.07;2.20;;;23.70;42.60;;;;;;6259177;27;80878;-49
2023/02/25 11:30:19;;;;;;;5.13;2.20;;;23.70;42.90;;;;;;6257045;27;80576;-47
2023/02/25 11:33:20;;;;;;;7.55;2.30;;;23.70;42.80;;;;;;6260740;27;89047;-48
2023/02/25 11:36:21;;;;;;;5.82;2.05;;;23.60;43.10;;;;;;6249417;27;80272;-60
2023/02/25 11:39:22;;;;;;;5.03;1.77;;;23.60;43.00;;;;;;6258078;27;81625;-52
2023/02/25 11:42:23;;;;;;;3.50;1.98;;;23.60;42.90;;;;;;6267797;27;81712;-56
2023/02/25 11:45:23;;;;;;;8.05;2.03;;;23.70;42.20;;;;;;6265540;27;80400;-49
2023/02/25 11:48:24;;;;;;;5.40;1.80;;;23.70;42.00;;;;;;6255659;27;81226;-52
2023/02/25 11:51:25;;;;;;;4.55;2.10;;;23.70;41.80;;;;;;6242001;27;81107;-52
2023/02/25 11:54:26;;;;;;;9.20;1.83;;;23.60;41.30;;;;;;6257682;27;80487;-49
2023/02/25 11:57:26;;;;;;;7.50;2.05;;;23.60;41.30;;;;;;6261683;27;81102;-48
2023/02/25 12:00:27;;;;;;;2.95;1.65;;;23.60;41.00;;;;;;6259854;27;80841;-53
2023/02/25 12:03:27;;;;;;;6.00;1.70;;;23.60;40.70;;;;;;6263526;27;81407;-61
2023/02/25 12:06:28;;;;;;;3.63;1.70;;;23.60;40.80;;;;;;6270156;27;80579;-58
2023/02/25 12:09:28;;;;;;;5.25;1.60;;;23.50;40.80;;;;;;6272034;27;80853;-59
2023/02/25 12:12:29;;;;;;;7.45;2.00;;;23.50;40.70;;;;;;6266308;27;80526;-59
2023/02/25 12:15:29;;;;;;;5.80;2.33;;;23.50;40.40;;;;;;6271187;27;80515;-60
2023/02/25 12:18:30;;;;;;;3.00;1.65;;;23.40;40.40;;;;;;6275770;27;80421;-59
2023/02/25 12:21:30;;;;;;;6.00;2.00;;;23.40;40.20;;;;;;6261705;27;80367;-56
2023/02/25 12:24:31;;;;;;;61.95;26.27;;;23.40;41.10;;;;;;6275224;27;80837;-59
2023/02/25 12:27:32;;;;;;;115.47;52.03;;;23.40;40.60;;;;;;6271417;27;90874;-54
2023/02/25 12:30:34;;;;;;;143.15;62.50;;;23.50;40.40;;;;;;6268385;27;83170;-55
2023/02/25 12:33:34;;;;;;;147.52;61.92;;;23.60;40.10;;;;;;6277890;27;83306;-58
2023/02/25 12:36:35;;;;;;;211.05;89.38;;;23.80;40.00;;;;;;6273435;27;84363;-59
2023/02/25 12:39:37;;;;;;;257.58;109.72;;;23.80;40.10;;;;;;6274691;27;83255;-61
2023/02/25 12:42:37;;;;;;;231.93;98.68;;;23.70;39.80;;;;;;6262626;27;86933;-60
2023/02/25 12:45:38;;;;;;;212.70;90.53;;;23.70;39.90;;;;;;6276872;27;85359;-59
2023/02/25 12:48:39;;;;;;;191.57;80.53;;;23.60;39.80;;;;;;6277521;27;85010;-58
2023/02/25 12:51:39;;;;;;;174.80;74.45;;;23.60;39.90;;;;;;6262854;27;83671;-59
2023/02/25 12:54:40;;;;;;;158.05;67.53;;;23.60;39.90;;;;;;6270941;27;83037;-60
2023/02/25 12:57:40;;;;;;;161.60;65.28;;;23.60;40.10;;;;;;6272885;27;83190;-60
2023/02/25 13:00:41;;;;;;;133.52;58.50;;;23.50;40.10;;;;;;6277064;27;83004;-59
2023/02/25 13:03:41;;;;;;;128.65;56.42;;;23.60;40.00;;;;;;6271720;27;82673;-62
2023/02/25 13:06:42;;;;;;;104.60;46.67;;;23.70;40.00;;;;;;6260637;27;87562;-61
2023/02/25 13:09:42;;;;;;;109.60;45.35;;;23.70;40.10;;;;;;6261491;27;84399;-63
2023/02/25 13:12:43;;;;;;;91.20;39.47;;;23.70;40.00;;;;;;6268941;27;83016;-63
2023/02/25 13:15:44;;;;;;;95.95;37.83;;;23.60;40.00;;;;;;6270422;27;82971;-61
2023/02/25 13:18:49;;;;;;;83.53;34.95;;;23.60;40.10;;;;;;6269319;27;83527;-61
2023/02/25 13:21:49;;;;;;;84.57;34.40;;;23.60;40.10;;;;;;6268308;27;83412;-62
2023/02/25 13:24:50;;;;;;;73.03;31.45;;;23.50;40.10;;;;;;6268692;27;83752;-61
2023/02/25 13:27:51;;;;;;;75.30;29.50;;;23.50;40.30;;;;;;6267553;27;83382;-63
2023/02/25 13:30:52;;;;;;;66.93;27.60;;;23.50;41.10;;;;;;6270069;27;83461;-60
2023/02/25 13:33:55;;;;;;;62.90;26.73;;;23.50;40.50;;;;;;6275089;27;83716;-62
2023/02/25 13:36:55;;;;;;;64.72;25.33;;;23.40;40.40;;;;;;6249931;27;85675;-60
2023/02/25 13:39:56;;;;;;;58.60;24.85;;;23.40;40.30;;;;;;6264904;27;84471;-61
2023/02/25 13:42:57;;;;;;;54.83;22.15;;;23.30;40.30;;;;;;6260126;27;82788;-71
2023/02/25 13:45:58;;;;;;;49.20;20.63;;;23.30;40.40;;;;;;6261965;27;83938;-61
2023/02/25 13:48:58;;;;;;;44.10;19.08;;;23.30;40.70;;;;;;6263640;27;83109;-60
2023/02/25 13:51:59;;;;;;;44.13;18.40;;;23.30;40.60;;;;;;6242696;27;82939;-60
2023/02/25 13:55:00;;;;;;;35.78;17.33;;;23.40;40.60;;;;;;6266836;27;83203;-59
2023/02/25 13:58:00;;;;;;;42.45;16.85;;;23.50;40.60;;;;;;6263566;27;82875;-59
2023/02/25 14:01:02;;;;;;;34.88;15.07;;;23.50;41.00;;;;;;6260763;27;84201;-60
2023/02/25 14:04:02;;;;;;;32.63;13.80;;;23.60;40.10;;;;;;6260704;27;84845;-61
2023/02/25 14:07:03;;;;;;;37.00;13.65;;;23.70;40.90;;;;;;6250993;27;84794;-63
2023/02/25 14:10:03;;;;;;;33.70;14.30;;;23.70;40.20;;;;;;6254844;27;83587;-62
2023/02/25 14:13:04;;;;;;;27.17;11.52;;;23.70;40.40;;;;;;6257116;27;83299;-64
2023/02/25 14:16:06;;;;;;;23.98;11.85;;;23.80;40.70;;;;;;6254068;27;84066;-62
2023/02/25 14:19:06;;;;;;;24.00;10.85;;;23.90;40.80;;;;;;6266490;27;82940;-61
2023/02/25 14:22:07;;;;;;;19.15;9.35;;;23.90;40.60;;;;;;6250761;27;88556;-62
2023/02/25 14:25:07;;;;;;;20.55;9.20;;;23.90;40.40;;;;;;6269990;27;81800;-63
2023/02/25 14:28:08;;;;;;;22.75;9.30;;;24.00;40.40;;;;;;6256109;27;81343;-61
2023/02/25 14:31:08;;;;;;;16.98;8.05;;;23.90;40.30;;;;;;6250190;27;84585;-63
2023/02/25 14:34:10;;;;;;;21.30;7.75;;;23.80;40.70;;;;;;6255061;27;80726;-62
2023/02/25 14:37:11;;;;;;;25.55;9.70;;;23.80;41.00;;;;;;6269012;27;80809;-62
2023/02/25 14:40:11;;;;;;;17.48;7.43;;;23.80;40.90;;;;;;6267679;27;80450;-73
2023/02/25 14:43:12;;;;;;;13.38;6.63;;;23.70;41.80;;;;;;6262447;27;81320;-63
2023/02/25 14:46:12;;;;;;;20.38;8.00;;;23.70;41.50;;;;;;6273252;27;80789;-62
2023/02/25 14:49:13;;;;;;;17.25;7.22;;;23.70;41.20;;;;;;6269860;27;81251;-57
2023/02/25 14:52:13;;;;;;;16.48;6.45;;;23.70;40.80;;;;;;6267833;27;83299;-59
2023/02/25 14:55:14;;;;;;;12.70;6.47;;;23.70;40.80;;;;;;6271342;27;81565;-60
2023/02/25 14:58:14;;;;;;;14.60;5.95;;;23.80;41.10;;;;;;6264589;27;80544;-59
2023/02/25 15:01:15;;;;;;;12.75;6.00;;;23.70;41.20;;;;;;6256600;27;80493;-57
2023/02/25 15:04:16;;;;;;;9.55;5.28;;;23.70;41.40;;;;;;6266118;27;81564;-55
2023/02/25 15:07:16;;;;;;;11.77;5.05;;;23.60;41.20;;;;;;6267231;27;85477;-60
2023/02/25 15:10:17;;;;;;;13.20;5.13;;;23.60;41.10;;;;;;6262051;27;83815;-59
2023/02/25 15:13:17;;;;;;;8.35;4.57;;;23.60;41.20;;;;;;6260847;27;80852;-59
2023/02/25 15:16:18;;;;;;;17.15;4.70;;;23.50;40.90;;;;;;6265243;27;81068;-58
2023/02/25 15:19:19;;;;;;;11.82;4.90;;;23.60;40.70;;;;;;6260386;27;80202;-58
2023/02/25 15:22:19;;;;;;;10.45;5.43;;;23.90;40.10;;;;;;6260516;27;81122;-60
2023/02/25 15:25:20;;;;;;;12.40;3.88;;;24.40;39.70;;;;;;6266925;27;80776;-58
2023/02/25 15:28:20;;;;;;;9.02;4.07;;;24.40;39.40;;;;;;6266036;27;80749;-59
2023/02/25 15:31:24;;;;;;;10.38;4.40;;;24.30;39.40;;;;;;6270861;27;80825;-59
2023/02/25 15:34:25;;;;;;;5.82;3.80;;;24.10;39.50;;;;;;6280615;27;80339;-59
2023/02/25 15:37:26;;;;;;;8.75;3.92;;;24.00;39.80;;;;;;6269168;27;80437;-58
2023/02/25 15:40:27;;;;;;;8.65;3.60;;;23.90;40.00;;;;;;6265309;27;83231;-59
2023/02/25 15:43:27;;;;;;;6.35;3.28;;;23.80;40.20;;;;;;6261658;27;80849;-58